Portada
METAR-TAF:

METAR-TAF

Aeroports :

Rodrigues, Maurici

latitud: 19-41S, longitud: 063-25E, altitud: 58 m

METAR: manca

Hora: 12:00 (08:00 UTC)

Pronòstic

L'informe es va fer fa 2 hores i 55 minuts, a les 05:05 UTC
Pronòstic vàlid del 29 a les 06 UTC al 30 a les 00 UTC
Vent 20 kt del Est/Sud-Est amb ràfegues de 30 kt
Visibilitat 10 km o més
Núvols disperses a una alçada de 1600 ft
Temporalment
l' 29 a les 06 UTC al 29 a les 18 UTC
Visibilitat: 7000 m
Escasses núvols a una alçada de 1000 ft
Núvols disperses a una alçada de 1500 ft
Cel ennuvolat a una alçada de 5000 ft
xàfecs de pluja
Probabilitat 30% :
Temporalment
l' 29 a les 09 UTC al 29 a les 15 UTC
Visibilitat: 5000 m
Escasses núvols a una alçada de 1000 ft
Escasses núvols a una alçada de 1300 ft, Cumulus congestus.
Cel ennuvolat a una alçada de 1500 ft
xàfecs de pluja

TAF: FIMR 290505Z 2906/3000 11020G30KT 9999 SCT016 TEMPO 2906/2918 7000 -SHRA FEW010 SCT015 BKN050 PROB30 TEMPO 2909/2915 5000 SHRA FEW010 FEW013TCU BKN015

Observacions i pronòstics meteorològics de més de 4000 aeroports (METAR i TAF).

Les estacions disponibles són els punts grocs i vermells al mapa.

Posi el ratolí al punt desitjat per veure el nom de l'estació.

Feu clic per veure les observacions i els pronòstics meteorològics.

Per canviar el mapa: feu clic els botons verds amb una creu de color negre per apropar; al botó verd amb un guió per allunyar la imatge; o en les fletxes verdes per a mapes adjacents.


METAR-TAF: